createdAt,value
2022-09-03T00:01:50.911Z,99.60
2022-09-03T00:04:44.214Z,99.60
2022-09-03T00:07:47.276Z,97.90
2022-09-03T00:10:48.020Z,97.30
2022-09-03T00:13:23.373Z,98.40
2022-09-03T00:15:53.438Z,99.00
2022-09-03T00:18:25.653Z,99.30
2022-09-03T00:20:59.493Z,99.90
2022-09-03T00:23:30.746Z,99.90
2022-09-03T00:26:10.242Z,99.90
2022-09-03T00:28:45.064Z,99.90
2022-09-03T00:31:28.175Z,99.70
2022-09-03T00:34:01.129Z,99.90
2022-09-03T00:36:42.386Z,99.90
2022-09-03T00:39:18.957Z,99.90
2022-09-03T00:42:13.251Z,99.90
2022-09-03T00:45:07.783Z,99.90
2022-09-03T00:47:44.869Z,99.90
2022-09-03T00:50:19.005Z,99.90
2022-09-03T00:53:05.187Z,99.90
2022-09-03T00:55:35.654Z,99.90
2022-09-03T00:58:18.364Z,99.90
2022-09-03T01:00:45.938Z,99.90
2022-09-03T01:03:53.344Z,99.90
2022-09-03T01:06:39.344Z,99.90
2022-09-03T01:09:35.174Z,99.90
2022-09-03T01:12:32.183Z,99.90
2022-09-03T01:15:17.209Z,99.90
2022-09-03T01:18:04.423Z,99.90
2022-09-03T01:20:55.485Z,99.90
2022-09-03T01:24:02.128Z,98.60
2022-09-03T01:26:52.669Z,98.00
2022-09-03T01:29:35.535Z,97.60
2022-09-03T01:32:34.605Z,97.20
2022-09-03T01:35:06.205Z,96.80
2022-09-03T01:38:12.361Z,96.60
2022-09-03T01:41:27.853Z,96.60
2022-09-03T01:44:06.647Z,96.70
2022-09-03T01:46:40.261Z,96.40
2022-09-03T01:49:31.151Z,96.40
2022-09-03T01:52:11.406Z,96.50
2022-09-03T01:55:00.202Z,98.00
2022-09-03T01:57:39.778Z,99.10
2022-09-03T02:00:13.646Z,99.40
2022-09-03T02:02:44.414Z,99.90
2022-09-03T02:05:14.920Z,99.50
2022-09-03T02:08:06.991Z,99.90
2022-09-03T02:10:48.241Z,99.90
2022-09-03T02:13:29.919Z,99.90
2022-09-03T02:16:01.480Z,99.90
2022-09-03T02:18:37.527Z,99.90
2022-09-03T02:21:05.728Z,99.60
2022-09-03T02:23:33.368Z,99.60
2022-09-03T02:26:03.355Z,99.40
2022-09-03T02:28:32.626Z,99.80
2022-09-03T02:31:00.198Z,99.20
2022-09-03T02:33:28.197Z,98.70
2022-09-03T02:35:55.889Z,98.80
2022-09-03T02:38:26.234Z,98.60
2022-09-03T02:40:54.426Z,99.10
2022-09-03T02:43:41.775Z,98.80
2022-09-03T02:46:15.448Z,98.90
2022-09-03T02:48:43.032Z,99.00
2022-09-03T02:51:14.373Z,99.00
2022-09-03T02:53:42.904Z,99.20
2022-09-03T02:56:10.597Z,99.20
2022-09-03T02:58:38.239Z,99.20
2022-09-03T03:01:06.133Z,99.10
2022-09-03T03:03:33.867Z,99.10
2022-09-03T03:06:05.654Z,99.00
2022-09-03T03:08:35.209Z,99.00
2022-09-03T03:11:02.848Z,99.00
2022-09-03T03:13:32.035Z,98.80
2022-09-03T03:16:06.299Z,98.60
2022-09-03T03:18:34.726Z,98.40
2022-09-03T03:21:15.095Z,98.50
2022-09-03T03:23:42.729Z,98.30
2022-09-03T03:26:13.247Z,98.30
2022-09-03T03:28:42.423Z,98.30
2022-09-03T03:31:12.037Z,98.40
2022-09-03T03:33:40.500Z,98.30
2022-09-03T03:36:14.330Z,99.00
2022-09-03T03:38:43.998Z,99.30
2022-09-03T03:41:24.163Z,98.30
2022-09-03T03:43:59.926Z,98.40
2022-09-03T03:46:36.513Z,98.40
2022-09-03T03:49:06.522Z,98.60
2022-09-03T03:51:35.463Z,98.70
2022-09-03T03:54:05.195Z,98.80
2022-09-03T03:56:34.631Z,98.90
2022-09-03T03:59:03.035Z,98.80
2022-09-03T04:01:30.973Z,99.00
2022-09-03T04:04:00.230Z,99.50
2022-09-03T04:06:28.829Z,99.60
2022-09-03T04:08:56.515Z,99.70
2022-09-03T04:11:24.665Z,99.90
2022-09-03T04:13:52.360Z,99.90
2022-09-03T04:16:25.292Z,99.80
2022-09-03T04:18:54.428Z,99.70
2022-09-03T04:21:29.347Z,99.90
2022-09-03T04:23:57.937Z,99.90
2022-09-03T04:26:33.126Z,99.90
2022-09-03T04:29:05.142Z,99.90
2022-09-03T04:31:33.767Z,99.90
2022-09-03T04:34:01.259Z,99.90
2022-09-03T04:36:31.049Z,99.90
2022-09-03T04:39:00.261Z,99.90
2022-09-03T04:41:29.595Z,99.90
2022-09-03T04:43:58.554Z,99.90
2022-09-03T04:46:33.631Z,99.90
2022-09-03T04:49:02.456Z,99.90
2022-09-03T04:51:30.387Z,99.90
2022-09-03T04:54:02.669Z,99.90
2022-09-03T04:56:32.186Z,99.90
2022-09-03T04:59:02.255Z,99.90
2022-09-03T05:01:31.859Z,99.90
2022-09-03T05:03:59.949Z,99.90
2022-09-03T05:06:28.902Z,99.90
2022-09-03T05:08:56.713Z,99.90
2022-09-03T05:11:25.050Z,99.90
2022-09-03T05:13:54.909Z,99.90
2022-09-03T05:16:24.015Z,99.90
2022-09-03T05:18:57.001Z,99.90
2022-09-03T05:21:24.691Z,99.80
2022-09-03T05:23:53.324Z,99.90
2022-09-03T05:26:29.000Z,99.90
2022-09-03T05:28:59.447Z,99.90
2022-09-03T05:31:30.160Z,99.90
2022-09-03T05:34:00.457Z,99.90
2022-09-03T05:36:30.316Z,99.90
2022-09-03T05:38:59.280Z,99.90
2022-09-03T05:41:28.181Z,99.90
2022-09-03T05:43:59.605Z,99.90
2022-09-03T05:46:32.622Z,99.90
2022-09-03T05:49:05.776Z,99.10
2022-09-03T05:51:34.499Z,98.10
2022-09-03T05:54:02.977Z,97.30
2022-09-03T05:56:31.743Z,97.00
2022-09-03T05:59:01.828Z,96.60
2022-09-03T06:01:35.214Z,96.30
2022-09-03T06:04:08.076Z,95.90
2022-09-03T06:06:39.016Z,95.30
2022-09-03T06:09:23.540Z,94.30
2022-09-03T06:11:52.613Z,93.60
2022-09-03T06:14:20.543Z,93.10
2022-09-03T06:16:50.158Z,93.10
2022-09-03T06:19:17.795Z,92.90
2022-09-03T06:21:46.963Z,92.00
2022-09-03T06:24:17.038Z,91.50
2022-09-03T06:26:45.088Z,91.10
2022-09-03T06:29:12.872Z,90.50
2022-09-03T06:31:40.629Z,90.10
2022-09-03T06:34:08.438Z,90.00
2022-09-03T06:36:36.106Z,89.80
2022-09-03T06:39:03.975Z,90.10
2022-09-03T06:41:35.243Z,89.60
2022-09-03T06:44:05.782Z,87.90
2022-09-03T06:46:39.009Z,85.50
2022-09-03T06:49:07.104Z,79.80
2022-09-03T06:54:08.546Z,80.20
2022-09-03T06:56:40.220Z,78.40
2022-09-03T06:59:10.923Z,80.60
2022-09-03T07:01:43.574Z,81.00
2022-09-03T07:04:13.539Z,82.50
2022-09-03T07:06:42.640Z,83.70
2022-09-03T07:09:12.165Z,82.70
2022-09-03T07:11:47.181Z,81.20
2022-09-03T07:14:19.558Z,82.60
2022-09-03T07:16:48.552Z,82.20
2022-09-03T07:19:16.517Z,83.80
2022-09-03T07:21:49.698Z,83.60
2022-09-03T07:24:19.830Z,84.30
2022-09-03T07:26:48.809Z,83.60
2022-09-03T07:29:20.106Z,82.50
2022-09-03T07:31:51.731Z,81.30
2022-09-03T07:34:20.439Z,78.70
2022-09-03T07:36:51.428Z,77.50
2022-09-03T07:39:19.968Z,80.00
2022-09-03T07:41:47.712Z,83.80
2022-09-03T07:44:19.405Z,85.10
2022-09-03T07:46:50.046Z,85.50
2022-09-03T07:49:17.639Z,86.00
2022-09-03T07:51:46.589Z,85.20
2022-09-03T07:54:14.234Z,85.30
2022-09-03T07:56:41.651Z,86.60
2022-09-03T07:59:09.581Z,85.10
2022-09-03T08:01:39.138Z,85.80
2022-09-03T08:04:09.807Z,85.00
2022-09-03T08:06:38.475Z,85.50
2022-09-03T08:09:09.053Z,85.40
2022-09-03T08:11:39.231Z,84.50
2022-09-03T08:14:08.909Z,83.80
2022-09-03T08:16:45.932Z,82.80
2022-09-03T08:19:14.098Z,79.90
2022-09-03T08:21:42.266Z,80.40
2022-09-03T08:24:11.239Z,80.60
2022-09-03T08:26:51.172Z,81.70
2022-09-03T08:29:20.451Z,80.90
2022-09-03T08:31:48.149Z,82.30
2022-09-03T08:34:17.589Z,80.40
2022-09-03T08:36:47.036Z,81.30
2022-09-03T08:39:15.098Z,81.90
2022-09-03T08:41:45.532Z,80.10
2022-09-03T08:44:31.070Z,79.90
2022-09-03T08:47:26.833Z,81.00
2022-09-03T08:50:14.644Z,80.90
2022-09-03T08:52:50.148Z,82.00
2022-09-03T08:55:31.383Z,79.80
2022-09-03T08:58:29.762Z,81.20
2022-09-03T09:01:14.940Z,80.90
2022-09-03T09:04:20.366Z,81.90
2022-09-03T09:07:01.845Z,82.00
2022-09-03T09:10:14.786Z,82.80
2022-09-03T09:12:48.003Z,83.10
2022-09-03T09:15:23.844Z,82.00
2022-09-03T09:18:22.762Z,82.80
2022-09-03T09:20:52.140Z,83.40
2022-09-03T09:23:30.522Z,84.50
2022-09-03T09:26:01.343Z,84.00
2022-09-03T09:28:37.758Z,84.40
2022-09-03T09:31:10.202Z,85.90
2022-09-03T09:33:38.603Z,82.70
2022-09-03T09:36:09.885Z,82.80
2022-09-03T09:38:39.703Z,84.60
2022-09-03T09:41:27.554Z,85.10
2022-09-03T09:44:02.370Z,84.80
2022-09-03T09:46:39.508Z,85.40
2022-09-03T09:49:31.398Z,85.10
2022-09-03T09:52:08.749Z,84.20
2022-09-03T09:54:36.231Z,85.40
2022-09-03T09:57:06.778Z,84.40
2022-09-03T09:59:35.554Z,81.20
2022-09-03T10:02:10.431Z,83.20
2022-09-03T10:04:44.109Z,83.40
2022-09-03T10:07:25.502Z,82.10
2022-09-03T10:10:22.425Z,83.10
2022-09-03T10:13:30.127Z,80.30
2022-09-03T10:16:10.900Z,82.00
2022-09-03T10:19:16.070Z,83.60
2022-09-03T10:22:18.851Z,81.90
2022-09-03T10:24:59.016Z,83.00
2022-09-03T10:27:26.628Z,83.90
2022-09-03T10:29:54.171Z,83.60
2022-09-03T10:32:42.786Z,82.30
2022-09-03T10:35:35.144Z,81.30
2022-09-03T10:38:38.045Z,81.80
2022-09-03T10:41:13.359Z,82.80
2022-09-03T10:44:06.647Z,83.60
2022-09-03T10:47:03.298Z,83.80
2022-09-03T10:49:55.281Z,84.40
2022-09-03T10:52:44.446Z,82.20
2022-09-03T10:55:11.953Z,81.80
2022-09-03T10:58:01.345Z,81.80
2022-09-03T11:00:31.432Z,81.30
2022-09-03T11:03:35.947Z,78.50
2022-09-03T11:06:30.732Z,78.90
2022-09-03T11:09:06.823Z,79.20
2022-09-03T11:11:40.912Z,80.00
2022-09-03T11:14:15.345Z,81.00
2022-09-03T11:16:48.480Z,80.50
2022-09-03T11:19:23.568Z,80.30
2022-09-03T11:21:52.579Z,81.80
2022-09-03T11:24:24.326Z,83.70
2022-09-03T11:27:10.361Z,84.70
2022-09-03T11:29:46.405Z,83.90
2022-09-03T11:32:22.040Z,84.00
2022-09-03T11:34:52.104Z,83.90
2022-09-03T11:37:24.115Z,83.90
2022-09-03T11:40:20.222Z,82.60
2022-09-03T11:42:48.149Z,82.00
2022-09-03T11:45:35.229Z,82.10
2022-09-03T11:48:02.971Z,84.00
2022-09-03T11:50:32.670Z,82.20
2022-09-03T11:53:23.261Z,82.50
2022-09-03T11:56:16.521Z,80.90
2022-09-03T11:58:44.296Z,81.30
2022-09-03T12:01:16.206Z,81.90
2022-09-03T12:04:03.592Z,80.90
2022-09-03T12:06:54.421Z,82.50
2022-09-03T12:09:59.535Z,81.80
2022-09-03T12:12:59.630Z,79.50
2022-09-03T12:15:51.300Z,78.60
2022-09-03T12:18:45.740Z,80.90
2022-09-03T12:21:17.063Z,79.90
2022-09-03T12:23:49.340Z,81.00
2022-09-03T12:26:20.497Z,82.50
2022-09-03T12:29:00.905Z,84.90
2022-09-03T12:31:31.613Z,82.00
2022-09-03T12:34:15.115Z,80.70
2022-09-03T12:36:48.332Z,81.50
2022-09-03T12:40:04.471Z,81.40
2022-09-03T12:42:15.969Z,80.20
2022-09-03T12:44:43.456Z,81.10
2022-09-03T12:50:08.037Z,78.60
2022-09-03T12:52:45.184Z,79.50
2022-09-03T12:55:30.554Z,78.90
2022-09-03T12:58:27.283Z,77.50
2022-09-03T13:01:10.093Z,79.50
2022-09-03T13:04:01.830Z,79.30
2022-09-03T13:06:35.100Z,80.90
2022-09-03T13:09:06.559Z,80.10
2022-09-03T13:11:39.256Z,81.80
2022-09-03T13:14:14.553Z,82.00
2022-09-03T13:17:08.782Z,81.90
2022-09-03T13:19:46.672Z,82.20
2022-09-03T13:22:22.715Z,82.00
2022-09-03T13:25:14.212Z,82.10
2022-09-03T13:28:21.237Z,82.50
2022-09-03T13:31:12.383Z,81.60
2022-09-03T13:33:49.942Z,81.60
2022-09-03T13:36:21.630Z,82.40
2022-09-03T13:39:10.482Z,78.90
2022-09-03T13:41:54.497Z,80.20
2022-09-03T13:44:50.198Z,80.10
2022-09-03T13:47:37.904Z,81.50
2022-09-03T13:50:24.098Z,80.70
2022-09-03T13:53:10.939Z,80.20
2022-09-03T13:55:49.090Z,82.30
2022-09-03T13:58:42.995Z,81.80
2022-09-03T14:01:39.719Z,79.80
2022-09-03T14:04:20.093Z,82.20
2022-09-03T14:07:03.067Z,80.10
2022-09-03T14:09:54.441Z,82.90
2022-09-03T14:12:46.816Z,84.20
2022-09-03T14:15:25.813Z,85.40
2022-09-03T14:18:16.896Z,85.70
2022-09-03T14:20:56.838Z,85.60
2022-09-03T14:23:33.366Z,86.30
2022-09-03T14:26:05.790Z,86.80
2022-09-03T14:28:49.865Z,85.50
2022-09-03T14:31:39.358Z,85.20
2022-09-03T14:34:31.286Z,85.90
2022-09-03T14:37:17.277Z,86.50
2022-09-03T14:39:55.235Z,87.60
2022-09-03T14:42:31.575Z,88.90
2022-09-03T14:45:13.142Z,88.90
2022-09-03T14:47:52.846Z,89.40
2022-09-03T14:50:40.276Z,89.70
2022-09-03T14:53:40.675Z,88.80
2022-09-03T14:56:28.482Z,90.00
2022-09-03T14:59:11.146Z,89.50
2022-09-03T15:01:39.956Z,88.70
2022-09-03T15:04:55.302Z,89.00
2022-09-03T15:07:24.015Z,89.50
2022-09-03T15:10:16.910Z,88.90
2022-09-03T15:12:50.040Z,89.10
2022-09-03T15:15:27.134Z,89.20
2022-09-03T15:18:23.259Z,90.30
2022-09-03T15:20:52.295Z,89.60
2022-09-03T15:23:47.826Z,90.00
2022-09-03T15:26:27.941Z,89.80
2022-09-03T15:29:11.530Z,89.30
2022-09-03T15:32:00.364Z,89.80
2022-09-03T15:35:08.808Z,90.70
2022-09-03T15:37:57.797Z,90.30
2022-09-03T15:40:31.410Z,90.50
2022-09-03T15:43:09.682Z,90.40
2022-09-03T15:45:48.398Z,90.60
2022-09-03T15:48:50.995Z,90.40
2022-09-03T15:51:31.134Z,90.60
2022-09-03T15:54:07.146Z,90.70
2022-09-03T15:56:58.258Z,90.90
2022-09-03T15:59:59.693Z,90.70
2022-09-03T16:02:47.586Z,90.80
2022-09-03T16:05:47.609Z,90.70
2022-09-03T16:08:19.011Z,90.80
2022-09-03T16:11:07.666Z,91.40
2022-09-03T16:13:49.410Z,91.30
2022-09-03T16:16:45.555Z,90.80
2022-09-03T16:19:18.490Z,91.00
2022-09-03T16:21:49.353Z,91.30
2022-09-03T16:24:26.078Z,91.50
2022-09-03T16:27:16.481Z,91.00
2022-09-03T16:29:57.918Z,91.30
2022-09-03T16:32:31.022Z,91.40
2022-09-03T16:35:07.665Z,90.60
2022-09-03T16:37:48.180Z,90.80
2022-09-03T16:40:26.699Z,90.30
2022-09-03T16:43:18.103Z,90.70
2022-09-03T16:46:22.165Z,90.50
2022-09-03T16:48:58.822Z,91.40
2022-09-03T16:51:49.679Z,91.40
2022-09-03T16:55:10.697Z,91.20
2022-09-03T16:57:54.511Z,91.30
2022-09-03T17:00:22.578Z,91.70
2022-09-03T17:03:06.973Z,91.80
2022-09-03T17:05:52.183Z,91.90
2022-09-03T17:08:46.164Z,92.40
2022-09-03T17:11:50.961Z,92.40
2022-09-03T17:14:33.195Z,92.40
2022-09-03T17:17:27.514Z,92.60
2022-09-03T17:20:20.064Z,92.60
2022-09-03T17:22:51.285Z,93.10
2022-09-03T17:25:31.783Z,93.10
2022-09-03T17:28:25.547Z,93.00
2022-09-03T17:31:16.116Z,93.60
2022-09-03T17:33:55.390Z,93.70
2022-09-03T17:36:27.483Z,93.80
2022-09-03T17:39:13.563Z,93.80
2022-09-03T17:41:53.303Z,93.80
2022-09-03T17:44:46.775Z,93.50
2022-09-03T17:47:26.075Z,93.90
2022-09-03T17:50:11.271Z,94.00
2022-09-03T17:53:00.105Z,94.50
2022-09-03T17:55:37.399Z,94.30
2022-09-03T17:58:20.919Z,94.70
2022-09-03T18:01:21.552Z,94.50
2022-09-03T18:04:05.180Z,94.50
2022-09-03T18:06:42.368Z,94.80
2022-09-03T18:09:23.499Z,95.00
2022-09-03T18:12:03.013Z,95.40
2022-09-03T18:14:39.434Z,95.60
2022-09-03T18:17:28.893Z,95.60
2022-09-03T18:20:21.471Z,95.90
2022-09-03T18:23:16.059Z,95.90
2022-09-03T18:26:07.024Z,96.40
2022-09-03T18:29:01.607Z,96.50
2022-09-03T18:31:47.680Z,96.90
2022-09-03T18:34:41.264Z,97.20
2022-09-03T18:37:27.306Z,96.80
2022-09-03T18:40:13.611Z,96.50
2022-09-03T18:43:11.707Z,96.60
2022-09-03T18:47:22.493Z,96.70
2022-09-03T18:49:27.868Z,96.80
2022-09-03T18:52:36.531Z,97.50
2022-09-03T18:55:45.050Z,97.90
2022-09-03T18:59:06.584Z,98.10
2022-09-03T19:01:58.259Z,98.00
2022-09-03T19:04:59.428Z,98.00
2022-09-03T19:08:14.693Z,98.00
2022-09-03T19:11:36.094Z,98.00
2022-09-03T19:14:31.624Z,98.10
2022-09-03T19:17:41.489Z,97.90
2022-09-03T19:20:40.133Z,97.80
2022-09-03T19:23:25.976Z,97.70
2022-09-03T19:26:14.596Z,97.80
2022-09-03T19:29:05.952Z,97.90
2022-09-03T19:32:05.385Z,98.40
2022-09-03T19:35:28.426Z,98.40
2022-09-03T19:38:34.076Z,98.60
2022-09-03T19:41:32.223Z,98.50
2022-09-03T19:44:47.272Z,98.60
2022-09-03T19:48:02.967Z,98.60
2022-09-03T19:50:57.415Z,98.60
2022-09-03T19:53:44.058Z,98.60
2022-09-03T19:56:40.026Z,98.80
2022-09-03T19:59:34.418Z,98.60
2022-09-03T20:02:20.644Z,98.70
2022-09-03T20:05:18.191Z,98.60
2022-09-03T20:08:08.180Z,98.90
2022-09-03T20:10:36.714Z,98.70
2022-09-03T20:13:09.230Z,98.70
2022-09-03T20:16:13.454Z,98.60
2022-09-03T20:18:48.086Z,98.80
2022-09-03T20:21:47.277Z,98.60
2022-09-03T20:24:40.044Z,98.60
2022-09-03T20:27:34.820Z,98.70
2022-09-03T20:30:09.408Z,98.60
2022-09-03T20:32:39.937Z,98.80
2022-09-03T20:35:32.570Z,98.80
2022-09-03T20:38:09.380Z,98.70
2022-09-03T20:40:58.486Z,98.80
2022-09-03T20:44:17.922Z,98.80
2022-09-03T20:47:30.011Z,98.90
2022-09-03T20:50:13.116Z,98.80
2022-09-03T20:53:17.064Z,99.10
2022-09-03T20:55:49.199Z,99.20
2022-09-03T20:58:19.682Z,99.20
2022-09-03T21:01:05.218Z,99.20
2022-09-03T21:03:35.510Z,99.20
2022-09-03T21:06:21.501Z,99.40
2022-09-03T21:08:59.169Z,99.60
2022-09-03T21:11:34.082Z,99.70
2022-09-03T21:14:20.199Z,99.80
2022-09-03T21:16:56.761Z,99.80
2022-09-03T21:20:16.086Z,99.90
2022-09-03T21:23:03.608Z,99.90
2022-09-03T21:25:40.078Z,99.90
2022-09-03T21:28:20.870Z,99.90
2022-09-03T21:30:55.082Z,99.90
2022-09-03T21:33:36.987Z,99.90
2022-09-03T21:36:15.749Z,99.90
2022-09-03T21:38:53.629Z,99.90
2022-09-03T21:41:36.521Z,99.90
2022-09-03T21:44:42.438Z,99.90
2022-09-03T21:47:15.776Z,99.90
2022-09-03T21:50:17.379Z,99.90
2022-09-03T21:53:03.369Z,99.90
2022-09-03T21:55:51.444Z,99.90
2022-09-03T21:58:21.584Z,99.90
2022-09-03T22:00:51.913Z,99.90
2022-09-03T22:03:21.175Z,99.90
2022-09-03T22:05:59.655Z,99.90
2022-09-03T22:08:36.206Z,99.90
2022-09-03T22:11:15.632Z,99.90
2022-09-03T22:14:13.710Z,99.90
2022-09-03T22:16:53.129Z,99.90
2022-09-03T22:19:20.649Z,99.90
2022-09-03T22:21:59.889Z,99.90
2022-09-03T22:24:52.731Z,99.90
2022-09-03T22:27:25.283Z,99.90
2022-09-03T22:30:13.908Z,99.90
2022-09-03T22:32:53.158Z,99.90
2022-09-03T22:35:51.925Z,99.90
2022-09-03T22:38:43.697Z,99.90
2022-09-03T22:41:30.358Z,99.90
2022-09-03T22:44:18.522Z,99.90
2022-09-03T22:47:12.423Z,99.90
2022-09-03T22:50:17.035Z,99.90
2022-09-03T22:52:46.272Z,99.90
2022-09-03T22:55:25.580Z,99.90
2022-09-03T22:57:59.208Z,99.90
2022-09-03T23:00:29.319Z,99.90
2022-09-03T23:03:07.407Z,99.90
2022-09-03T23:05:59.041Z,99.90
2022-09-03T23:08:33.427Z,99.90
2022-09-03T23:11:25.482Z,99.90
2022-09-03T23:14:12.340Z,99.90
2022-09-03T23:16:57.635Z,99.90
2022-09-03T23:19:43.054Z,99.90
2022-09-03T23:22:22.449Z,99.90
2022-09-03T23:25:01.901Z,99.90
2022-09-03T23:27:41.820Z,99.90
2022-09-03T23:30:10.306Z,99.90
2022-09-03T23:32:38.175Z,99.90
2022-09-03T23:35:17.806Z,99.90
2022-09-03T23:38:04.378Z,99.90
2022-09-03T23:40:34.882Z,99.90
2022-09-03T23:43:11.557Z,99.90
2022-09-03T23:45:46.492Z,99.90
2022-09-03T23:48:51.504Z,99.90
2022-09-03T23:51:56.736Z,99.90
2022-09-03T23:54:49.366Z,99.90
2022-09-03T23:57:19.759Z,99.90
